createdAt,value
2023-02-15T00:01:37.522Z,23.77
2023-02-15T00:04:04.932Z,23.85
2023-02-15T00:06:31.808Z,23.40
2023-02-15T00:08:58.422Z,24.98
2023-02-15T00:11:43.212Z,21.98
2023-02-15T00:14:11.078Z,24.30
2023-02-15T00:16:38.506Z,20.38
2023-02-15T00:19:05.717Z,20.90
2023-02-15T00:21:33.713Z,21.42
2023-02-15T00:24:01.863Z,23.48
2023-02-15T00:26:28.619Z,22.98
2023-02-15T00:28:56.079Z,23.98
2023-02-15T00:31:22.811Z,24.60
2023-02-15T00:33:49.258Z,22.40
2023-02-15T00:36:15.708Z,20.40
2023-02-15T00:38:42.120Z,25.00
2023-02-15T00:41:09.804Z,23.75
2023-02-15T00:43:37.469Z,25.85
2023-02-15T00:46:05.768Z,22.48
2023-02-15T00:48:32.174Z,24.83
2023-02-15T00:51:00.563Z,25.13
2023-02-15T00:55:54.848Z,21.20
2023-02-15T00:58:21.489Z,24.33
2023-02-15T01:00:48.656Z,21.52
2023-02-15T01:03:17.450Z,24.85
2023-02-15T01:05:43.868Z,19.45
2023-02-15T01:08:10.596Z,20.45
2023-02-15T01:10:37.552Z,21.13
2023-02-15T01:13:05.858Z,22.67
2023-02-15T01:15:34.706Z,22.95
2023-02-15T01:18:01.040Z,19.40
2023-02-15T01:20:29.327Z,22.30
2023-02-15T01:22:57.510Z,22.30
2023-02-15T01:25:26.103Z,20.17
2023-02-15T01:27:52.551Z,19.98
2023-02-15T01:30:19.323Z,21.92
2023-02-15T01:32:45.835Z,18.92
2023-02-15T01:35:12.760Z,21.98
2023-02-15T01:37:39.171Z,20.02
2023-02-15T01:40:08.398Z,18.52
2023-02-15T01:42:34.939Z,18.80
2023-02-15T01:45:04.533Z,20.58
2023-02-15T01:47:35.457Z,23.60
2023-02-15T01:50:19.622Z,18.38
2023-02-15T01:52:56.008Z,19.55
2023-02-15T01:55:26.100Z,18.10
2023-02-15T01:57:53.045Z,19.15
2023-02-15T02:00:20.089Z,18.38
2023-02-15T02:02:49.169Z,19.38
2023-02-15T02:05:15.641Z,18.38
2023-02-15T02:07:47.521Z,22.02
2023-02-15T02:10:18.142Z,20.10
2023-02-15T02:12:46.728Z,15.73
2023-02-15T02:15:14.197Z,19.63
2023-02-15T02:18:00.868Z,20.02
2023-02-15T02:21:04.791Z,19.50
2023-02-15T02:23:54.691Z,18.75
2023-02-15T02:26:29.517Z,16.27
2023-02-15T02:29:23.201Z,18.93
2023-02-15T02:32:07.823Z,16.63
2023-02-15T02:34:49.797Z,17.17
2023-02-15T02:37:35.420Z,16.13
2023-02-15T02:40:11.997Z,15.57
2023-02-15T02:42:42.529Z,16.17
2023-02-15T02:45:26.999Z,16.42
2023-02-15T02:47:59.982Z,21.77
2023-02-15T02:50:29.597Z,17.67
2023-02-15T02:52:57.848Z,17.55
2023-02-15T02:55:31.682Z,20.73
2023-02-15T02:58:20.422Z,16.75
2023-02-15T03:00:53.110Z,17.52
2023-02-15T03:03:30.599Z,16.58
2023-02-15T03:06:01.868Z,16.15
2023-02-15T03:08:36.751Z,17.02
2023-02-15T03:11:05.148Z,17.93
2023-02-15T03:13:32.912Z,16.15
2023-02-15T03:16:20.468Z,16.58
2023-02-15T03:18:58.088Z,19.38
2023-02-15T03:21:50.584Z,15.05
2023-02-15T03:24:22.967Z,14.77
2023-02-15T03:26:52.719Z,18.25
2023-02-15T03:29:22.791Z,17.40
2023-02-15T03:31:54.990Z,16.77
2023-02-15T03:34:21.728Z,16.77
2023-02-15T03:37:25.614Z,13.55
2023-02-15T03:40:21.257Z,18.98
2023-02-15T03:42:53.336Z,17.07
2023-02-15T03:45:27.426Z,16.52
2023-02-15T03:47:57.231Z,19.20
2023-02-15T03:50:55.621Z,16.00
2023-02-15T03:53:24.302Z,15.77
2023-02-15T03:55:55.435Z,16.30
2023-02-15T03:58:40.485Z,18.90
2023-02-15T04:01:53.360Z,18.30
2023-02-15T04:04:25.505Z,15.65
2023-02-15T04:06:51.967Z,17.27
2023-02-15T04:09:36.804Z,19.42
2023-02-15T04:12:03.368Z,16.27
2023-02-15T04:14:48.522Z,17.75
2023-02-15T04:17:14.958Z,18.13
2023-02-15T04:19:59.917Z,19.85
2023-02-15T04:22:44.607Z,16.17
2023-02-15T04:25:13.762Z,16.10
2023-02-15T04:27:43.505Z,19.90
2023-02-15T04:30:12.178Z,17.60
2023-02-15T04:32:39.420Z,17.52
2023-02-15T04:35:07.501Z,20.13
2023-02-15T04:37:34.832Z,16.85
2023-02-15T04:40:01.229Z,18.27
2023-02-15T04:42:27.727Z,15.65
2023-02-15T04:44:55.316Z,18.50
2023-02-15T04:47:21.920Z,19.23
2023-02-15T04:49:48.369Z,19.85
2023-02-15T04:52:14.904Z,20.65
2023-02-15T04:54:41.552Z,18.38
2023-02-15T04:57:07.886Z,17.98
2023-02-15T04:59:34.302Z,18.50
2023-02-15T05:02:00.742Z,21.15
2023-02-15T05:04:27.230Z,18.23
2023-02-15T05:06:54.016Z,21.33
2023-02-15T05:09:20.441Z,17.95
2023-02-15T05:11:46.888Z,18.83
2023-02-15T05:14:13.446Z,17.40
2023-02-15T05:16:40.129Z,19.88
2023-02-15T05:19:06.690Z,19.55
2023-02-15T05:21:33.820Z,21.35
2023-02-15T05:24:00.279Z,21.65
2023-02-15T05:26:45.360Z,18.75
2023-02-15T05:29:11.924Z,21.27
2023-02-15T05:31:38.837Z,20.20
2023-02-15T05:34:05.396Z,18.42
2023-02-15T05:36:31.723Z,20.45
2023-02-15T05:38:58.065Z,19.92
2023-02-15T05:41:25.100Z,17.77
2023-02-15T05:43:51.535Z,20.20
2023-02-15T05:46:17.908Z,18.63
2023-02-15T05:48:44.297Z,18.63
2023-02-15T05:51:16.912Z,18.35
2023-02-15T05:53:43.268Z,18.00
2023-02-15T05:56:13.157Z,19.27
2023-02-15T05:58:41.439Z,20.80
2023-02-15T06:01:19.365Z,17.95
2023-02-15T06:03:46.822Z,18.83
2023-02-15T06:06:13.208Z,17.17
2023-02-15T06:08:39.744Z,21.60
2023-02-15T06:11:06.364Z,19.90
2023-02-15T06:13:33.226Z,18.63
2023-02-15T06:16:00.628Z,18.10
2023-02-15T06:18:27.514Z,18.70
2023-02-15T06:20:53.875Z,18.65
2023-02-15T06:23:20.403Z,19.60
2023-02-15T06:25:47.060Z,21.33
2023-02-15T06:28:14.003Z,22.40
2023-02-15T06:30:40.564Z,21.02
2023-02-15T06:33:07.040Z,20.67
2023-02-15T06:35:33.611Z,20.23
2023-02-15T06:37:59.975Z,19.58
2023-02-15T06:40:26.337Z,18.10
2023-02-15T06:42:52.765Z,21.13
2023-02-15T06:45:19.210Z,17.13
2023-02-15T06:47:45.682Z,16.85
2023-02-15T06:50:13.227Z,17.55
2023-02-15T06:52:39.560Z,19.58
2023-02-15T06:55:06.581Z,19.70
2023-02-15T06:57:34.053Z,21.92
2023-02-15T07:00:00.455Z,15.40
2023-02-15T07:02:26.837Z,18.02
2023-02-15T07:04:53.238Z,15.95
2023-02-15T07:07:19.899Z,16.48
2023-02-15T07:09:46.228Z,17.02
2023-02-15T07:12:30.992Z,22.50
2023-02-15T07:14:59.061Z,21.60
2023-02-15T07:17:36.905Z,15.63
2023-02-15T07:20:05.960Z,16.70
2023-02-15T07:22:34.832Z,16.58
2023-02-15T07:25:01.271Z,17.77
2023-02-15T07:27:27.700Z,15.98
2023-02-15T07:29:54.132Z,17.40
2023-02-15T07:32:20.561Z,16.25
2023-02-15T07:34:46.953Z,19.45
2023-02-15T07:37:13.328Z,19.42
2023-02-15T07:39:39.696Z,19.65
2023-02-15T07:42:06.189Z,18.52
2023-02-15T07:44:32.533Z,17.27
2023-02-15T07:46:58.840Z,18.13
2023-02-15T07:49:25.328Z,17.38
2023-02-15T07:51:51.732Z,18.27
2023-02-15T07:54:18.266Z,16.83
2023-02-15T07:56:44.700Z,19.23
2023-02-15T07:59:11.131Z,20.92
2023-02-15T08:01:39.004Z,18.73
2023-02-15T08:04:07.097Z,17.13
2023-02-15T08:06:36.140Z,17.67
2023-02-15T08:09:08.363Z,18.13
2023-02-15T08:11:40.804Z,17.17
2023-02-15T08:14:17.868Z,16.05
2023-02-15T08:16:46.832Z,18.75
2023-02-15T08:19:24.923Z,17.63
2023-02-15T08:21:52.877Z,16.65
2023-02-15T08:24:21.845Z,17.73
2023-02-15T08:26:49.563Z,16.92
2023-02-15T08:29:18.129Z,20.60
2023-02-15T08:31:45.018Z,17.75
2023-02-15T08:34:14.427Z,15.57
2023-02-15T08:36:41.131Z,17.60
2023-02-15T08:39:08.156Z,18.20
2023-02-15T08:41:36.875Z,17.75
2023-02-15T08:44:08.908Z,16.27
2023-02-15T08:46:38.591Z,17.48
2023-02-15T08:49:05.107Z,17.40
2023-02-15T08:51:34.222Z,17.30
2023-02-15T08:54:05.302Z,18.10
2023-02-15T08:56:38.087Z,18.60
2023-02-15T08:59:06.055Z,15.70
2023-02-15T09:01:34.224Z,16.55
2023-02-15T09:04:03.231Z,16.67
2023-02-15T09:06:29.884Z,18.38
2023-02-15T09:08:57.301Z,19.48
2023-02-15T09:11:26.479Z,16.70
2023-02-15T09:13:58.476Z,16.23
2023-02-15T09:16:27.639Z,17.60
2023-02-15T09:18:55.106Z,19.33
2023-02-15T09:21:24.866Z,17.65
2023-02-15T09:23:55.801Z,19.45
2023-02-15T09:26:24.190Z,18.90
2023-02-15T09:28:56.422Z,17.27
2023-02-15T09:31:26.654Z,17.65
2023-02-15T09:33:53.397Z,16.25
2023-02-15T09:36:22.492Z,17.95
2023-02-15T09:38:55.894Z,18.25
2023-02-15T09:41:50.581Z,20.65
2023-02-15T09:44:50.946Z,18.08
2023-02-15T09:47:20.236Z,17.85
2023-02-15T09:50:14.123Z,17.38
2023-02-15T09:53:02.071Z,18.15
2023-02-15T09:55:34.538Z,16.48
2023-02-15T09:58:15.930Z,17.42
2023-02-15T10:01:22.339Z,19.35
2023-02-15T10:04:28.132Z,20.60
2023-02-15T10:07:22.521Z,17.98
2023-02-15T10:10:27.355Z,20.58
2023-02-15T10:13:10.910Z,20.27
2023-02-15T10:15:54.291Z,21.00
2023-02-15T10:18:35.932Z,23.52
2023-02-15T10:21:25.721Z,22.80
2023-02-15T10:24:12.122Z,24.75
2023-02-15T10:26:47.650Z,20.92
2023-02-15T10:29:29.334Z,23.75
2023-02-15T10:32:06.320Z,23.15
2023-02-15T10:34:40.265Z,22.92
2023-02-15T10:37:21.917Z,26.33
2023-02-15T10:40:06.691Z,25.90
2023-02-15T10:43:05.290Z,27.20
2023-02-15T10:46:09.078Z,23.98
2023-02-15T10:48:56.639Z,24.92
2023-02-15T10:51:35.256Z,25.42
2023-02-15T10:54:20.616Z,29.58
2023-02-15T10:57:08.876Z,25.73
2023-02-15T10:59:54.289Z,25.17
2023-02-15T11:03:02.348Z,29.40
2023-02-15T11:06:13.139Z,26.90
2023-02-15T11:08:48.892Z,29.02
2023-02-15T11:11:25.679Z,27.98
2023-02-15T11:13:57.626Z,29.80
2023-02-15T11:16:29.873Z,29.63
2023-02-15T11:19:06.689Z,31.00
2023-02-15T11:21:39.883Z,29.75
2023-02-15T11:24:12.247Z,25.90
2023-02-15T11:26:43.624Z,27.48
2023-02-15T11:29:27.928Z,28.17
2023-02-15T11:31:58.592Z,31.45
2023-02-15T11:34:37.428Z,35.75
2023-02-15T11:37:14.576Z,32.80
2023-02-15T11:39:41.129Z,33.90
2023-02-15T11:42:17.686Z,26.90
2023-02-15T11:45:02.254Z,30.23
2023-02-15T11:47:29.152Z,29.75
2023-02-15T11:49:55.516Z,29.45
2023-02-15T11:52:21.958Z,30.10
2023-02-15T11:54:51.377Z,33.28
2023-02-15T11:57:43.357Z,29.38
2023-02-15T12:00:38.850Z,28.48
2023-02-15T12:03:29.171Z,28.17
2023-02-15T12:06:04.436Z,25.90
2023-02-15T12:08:43.160Z,29.60
2023-02-15T12:11:13.461Z,34.17
2023-02-15T12:13:56.575Z,33.20
2023-02-15T12:16:23.525Z,31.35
2023-02-15T12:18:53.372Z,28.13
2023-02-15T12:21:33.013Z,30.88
2023-02-15T12:24:04.909Z,30.83
2023-02-15T12:26:35.010Z,29.67
2023-02-15T12:29:18.862Z,30.52
2023-02-15T12:31:47.298Z,32.80
2023-02-15T12:34:42.203Z,28.80
2023-02-15T12:37:18.824Z,30.73
2023-02-15T12:39:57.254Z,28.52
2023-02-15T12:42:25.295Z,28.65
2023-02-15T12:45:02.341Z,29.02
2023-02-15T12:47:31.505Z,27.38
2023-02-15T12:50:17.793Z,28.17
2023-02-15T12:52:48.490Z,41.08
2023-02-15T12:55:21.304Z,28.45
2023-02-15T12:57:48.122Z,30.08
2023-02-15T13:00:20.562Z,28.95
2023-02-15T13:03:01.217Z,27.52
2023-02-15T13:05:36.233Z,30.77
2023-02-15T13:08:11.204Z,32.37
2023-02-15T13:10:57.200Z,32.20
2023-02-15T13:13:27.805Z,31.30
2023-02-15T13:15:59.173Z,28.50
2023-02-15T13:18:32.825Z,31.00
2023-02-15T13:21:25.067Z,35.08
2023-02-15T13:24:07.193Z,34.92
2023-02-15T13:26:35.704Z,27.17
2023-02-15T13:29:22.362Z,31.10
2023-02-15T13:31:51.681Z,27.05
2023-02-15T13:34:32.317Z,32.70
2023-02-15T13:37:14.461Z,31.77
2023-02-15T13:39:52.583Z,33.75
2023-02-15T13:42:29.841Z,32.85
2023-02-15T13:45:17.880Z,29.77
2023-02-15T13:48:34.108Z,30.65
2023-02-15T13:51:31.034Z,28.10
2023-02-15T13:54:32.838Z,28.45
2023-02-15T13:58:04.133Z,28.90
2023-02-15T14:00:41.310Z,30.00
2023-02-15T14:03:22.676Z,30.75
2023-02-15T14:06:13.106Z,31.08
2023-02-15T14:09:01.279Z,33.85
2023-02-15T14:11:36.587Z,31.73
2023-02-15T14:14:21.632Z,34.78
2023-02-15T14:17:16.196Z,29.65
2023-02-15T14:19:51.100Z,30.60
2023-02-15T14:22:40.014Z,30.73
2023-02-15T14:25:29.508Z,32.20
2023-02-15T14:28:18.385Z,29.55
2023-02-15T14:30:49.348Z,33.97
2023-02-15T14:33:16.409Z,28.45
2023-02-15T14:35:44.643Z,30.58
2023-02-15T14:38:21.330Z,31.08
2023-02-15T14:41:08.108Z,29.23
2023-02-15T14:43:37.741Z,31.38
2023-02-15T14:46:10.648Z,30.92
2023-02-15T14:48:59.583Z,31.35
2023-02-15T14:51:41.199Z,31.25
2023-02-15T14:54:09.063Z,28.75
2023-02-15T14:56:36.226Z,31.60
2023-02-15T14:59:19.041Z,31.92
2023-02-15T15:01:58.264Z,27.90
2023-02-15T15:04:30.901Z,32.30
2023-02-15T15:07:08.635Z,31.98
2023-02-15T15:09:38.634Z,29.95
2023-02-15T15:12:16.063Z,31.02
2023-02-15T15:14:46.721Z,32.15
2023-02-15T15:17:33.406Z,30.13
2023-02-15T15:20:14.745Z,30.58
2023-02-15T15:22:44.719Z,33.33
2023-02-15T15:25:13.035Z,34.08
2023-02-15T15:27:55.024Z,32.00
2023-02-15T15:30:21.447Z,32.03
2023-02-15T15:32:57.634Z,29.02
2023-02-15T15:35:46.083Z,30.80
2023-02-15T15:38:18.422Z,25.15
2023-02-15T15:41:17.312Z,32.63
2023-02-15T15:43:52.749Z,26.80
2023-02-15T15:46:50.375Z,30.88
2023-02-15T15:49:22.048Z,29.10
2023-02-15T15:51:49.855Z,27.90
2023-02-15T15:54:22.453Z,32.05
2023-02-15T15:57:01.845Z,30.52
2023-02-15T15:59:35.368Z,27.23
2023-02-15T16:02:08.114Z,31.58
2023-02-15T16:04:35.671Z,29.02
2023-02-15T16:07:17.363Z,31.25
2023-02-15T16:09:55.915Z,30.00
2023-02-15T16:12:23.846Z,36.65
2023-02-15T16:14:52.633Z,31.02
2023-02-15T16:17:22.989Z,32.05
2023-02-15T16:19:51.246Z,31.10
2023-02-15T16:22:24.273Z,31.17
2023-02-15T16:25:12.482Z,31.88
2023-02-15T16:27:44.569Z,31.73
2023-02-15T16:30:31.875Z,33.55
2023-02-15T16:33:17.650Z,31.60
2023-02-15T16:35:58.527Z,35.15
2023-02-15T16:38:43.225Z,28.60
2023-02-15T16:41:13.778Z,31.15
2023-02-15T16:43:42.261Z,31.88
2023-02-15T16:46:16.711Z,35.95
2023-02-15T16:48:48.674Z,34.25
2023-02-15T16:51:42.761Z,39.95
2023-02-15T16:54:18.613Z,40.65
2023-02-15T16:59:44.312Z,30.77
2023-02-15T17:02:40.207Z,31.95
2023-02-15T17:05:10.614Z,33.72
2023-02-15T17:07:42.393Z,33.42
2023-02-15T17:10:31.818Z,38.97
2023-02-15T17:13:17.866Z,40.90
2023-02-15T17:16:05.843Z,46.13
2023-02-15T17:18:39.485Z,42.30
2023-02-15T17:21:18.319Z,40.45
2023-02-15T17:23:50.852Z,37.05
2023-02-15T17:26:32.914Z,40.53
2023-02-15T17:29:02.668Z,42.45
2023-02-15T17:31:33.359Z,38.03
2023-02-15T17:34:01.177Z,37.05
2023-02-15T17:36:30.234Z,40.15
2023-02-15T17:39:01.673Z,34.90
2023-02-15T17:41:34.998Z,35.50
2023-02-15T17:44:03.697Z,39.05
2023-02-15T17:46:35.478Z,36.72
2023-02-15T17:49:02.200Z,36.55
2023-02-15T17:51:28.760Z,37.38
2023-02-15T17:54:13.766Z,46.30
2023-02-15T17:56:40.190Z,38.85
2023-02-15T17:59:11.336Z,42.88
2023-02-15T18:02:04.208Z,48.47
2023-02-15T18:04:50.944Z,46.17
2023-02-15T18:07:37.654Z,41.72
2023-02-15T18:10:32.589Z,48.13
2023-02-15T18:12:59.066Z,59.65
2023-02-15T18:15:25.929Z,55.30
2023-02-15T18:17:52.529Z,53.28
2023-02-15T18:20:31.737Z,50.75
2023-02-15T18:22:58.165Z,46.10
2023-02-15T18:25:25.396Z,45.30
2023-02-15T18:27:54.941Z,50.83
2023-02-15T18:30:24.046Z,46.42
2023-02-15T18:32:53.067Z,43.72
2023-02-15T18:35:23.680Z,40.65
2023-02-15T18:37:52.176Z,39.22
2023-02-15T18:40:29.091Z,44.10
2023-02-15T18:42:56.968Z,39.72
2023-02-15T18:45:32.396Z,49.70
2023-02-15T18:47:59.180Z,54.42
2023-02-15T18:50:28.996Z,46.05
2023-02-15T18:52:55.426Z,44.53
2023-02-15T18:55:25.840Z,53.67
2023-02-15T18:57:54.717Z,53.72
2023-02-15T19:00:29.750Z,48.33
2023-02-15T19:02:56.943Z,53.28
2023-02-15T19:05:24.621Z,49.13
2023-02-15T19:07:51.581Z,48.08
2023-02-15T19:10:25.287Z,44.08
2023-02-15T19:12:52.929Z,44.35
2023-02-15T19:15:25.187Z,45.58
2023-02-15T19:17:52.342Z,44.60
2023-02-15T19:20:20.179Z,54.13
2023-02-15T19:22:51.697Z,49.95
2023-02-15T19:25:24.977Z,46.72
2023-02-15T19:27:53.557Z,44.30
2023-02-15T19:30:29.779Z,43.15
2023-02-15T19:32:57.841Z,48.92
2023-02-15T19:35:29.006Z,45.47
2023-02-15T19:38:01.718Z,50.72
2023-02-15T19:40:34.061Z,52.22
2023-02-15T19:43:03.677Z,46.17
2023-02-15T19:45:31.848Z,43.72
2023-02-15T19:48:01.297Z,45.90
2023-02-15T19:50:33.197Z,53.20
2023-02-15T19:53:01.703Z,46.00
2023-02-15T19:55:33.396Z,45.42
2023-02-15T19:58:01.246Z,42.83
2023-02-15T20:00:30.807Z,43.20
2023-02-15T20:02:59.196Z,42.13
2023-02-15T20:05:30.400Z,43.03
2023-02-15T20:07:58.388Z,47.47
2023-02-15T20:10:28.715Z,43.20
2023-02-15T20:12:55.762Z,50.45
2023-02-15T20:15:27.098Z,37.85
2023-02-15T20:17:54.303Z,41.80
2023-02-15T20:20:22.525Z,45.90
2023-02-15T20:22:51.654Z,46.45
2023-02-15T20:25:21.060Z,44.15
2023-02-15T20:27:48.012Z,43.10
2023-02-15T20:30:16.878Z,44.85
2023-02-15T20:32:43.551Z,43.90
2023-02-15T20:35:18.064Z,42.90
2023-02-15T20:37:54.618Z,40.20
2023-02-15T20:40:30.423Z,44.85
2023-02-15T20:45:28.611Z,39.45
2023-02-15T20:47:55.420Z,43.38
2023-02-15T20:50:24.808Z,53.03
2023-02-15T20:52:52.882Z,57.47
2023-02-15T20:55:22.088Z,51.13
2023-02-15T20:57:48.898Z,49.38
2023-02-15T21:00:19.128Z,47.35
2023-02-15T21:02:52.861Z,48.05
2023-02-15T21:05:25.283Z,52.55
2023-02-15T21:07:52.952Z,48.63
2023-02-15T21:10:24.620Z,44.88
2023-02-15T21:12:51.833Z,43.97
2023-02-15T21:15:34.347Z,44.22
2023-02-15T21:18:06.525Z,44.38
2023-02-15T21:20:35.026Z,45.30
2023-02-15T21:23:05.049Z,43.47
2023-02-15T21:25:36.798Z,50.85
2023-02-15T21:28:08.263Z,44.97
2023-02-15T21:30:34.770Z,48.65
2023-02-15T21:33:01.182Z,46.83
2023-02-15T21:35:28.658Z,44.47
2023-02-15T21:37:56.126Z,45.65
2023-02-15T21:40:29.851Z,41.88
2023-02-15T21:43:15.883Z,43.45
2023-02-15T21:46:01.298Z,52.25
2023-02-15T21:48:27.793Z,49.33
2023-02-15T21:51:13.536Z,48.00
2023-02-15T21:53:42.654Z,47.05
2023-02-15T21:56:13.282Z,46.10
2023-02-15T21:58:40.237Z,47.17
2023-02-15T22:01:21.216Z,42.55
2023-02-15T22:03:48.256Z,42.25
2023-02-15T22:06:17.214Z,41.50
2023-02-15T22:08:47.219Z,45.97
2023-02-15T22:11:17.858Z,42.65
2023-02-15T22:13:47.486Z,47.25
2023-02-15T22:16:21.645Z,42.17
2023-02-15T22:18:49.170Z,43.35
2023-02-15T22:21:22.025Z,49.90
2023-02-15T22:23:54.698Z,42.58
2023-02-15T22:26:30.040Z,42.50
2023-02-15T22:29:07.223Z,47.92
2023-02-15T22:31:39.214Z,39.90
2023-02-15T22:34:23.052Z,42.25
2023-02-15T22:37:04.889Z,40.53
2023-02-15T22:39:31.671Z,40.97
2023-02-15T22:42:02.901Z,41.20
2023-02-15T22:44:37.646Z,40.95
2023-02-15T22:47:05.600Z,44.22
2023-02-15T22:49:32.556Z,38.78
2023-02-15T22:52:01.700Z,41.88
2023-02-15T22:54:28.803Z,40.22
2023-02-15T22:56:58.673Z,46.97
2023-02-15T22:59:32.958Z,40.75
2023-02-15T23:02:01.112Z,42.38
2023-02-15T23:04:36.243Z,40.55
2023-02-15T23:07:23.270Z,42.28
2023-02-15T23:09:58.274Z,41.40
2023-02-15T23:12:55.272Z,61.47
2023-02-15T23:18:26.403Z,46.97
2023-02-15T23:21:02.250Z,39.72
2023-02-15T23:23:41.014Z,39.38
2023-02-15T23:26:29.536Z,38.85
2023-02-15T23:29:04.730Z,41.20
2023-02-15T23:31:36.822Z,36.75
2023-02-15T23:34:14.950Z,39.72
2023-02-15T23:36:45.244Z,38.55
2023-02-15T23:39:41.646Z,40.47
2023-02-15T23:42:24.525Z,36.55
2023-02-15T23:44:57.100Z,38.35
2023-02-15T23:47:47.684Z,36.58
2023-02-15T23:50:24.212Z,34.00
2023-02-15T23:52:52.796Z,40.95
2023-02-15T23:55:21.167Z,36.72
2023-02-15T23:57:48.416Z,34.55
